Time;durP1;ratioP1;P1;durP2;ratioP2;P2;SDS_P1;SDS_P2;PMS_P1;PMS_P2;Temp;Humidity;BMP_temperature;BMP_pressure;BME280_temperature;BME280_humidity;BME280_pressure;Samples;Min_cycle;Max_cycle;Signal;HPM_P1;HPM_P2
2023/11/09 00:00:11;;;;;;;11.83;2.53;;;25.50;65.10;;;;;;5041049;28;20271;-68
2023/11/09 00:02:39;;;;;;;11.93;2.23;;;25.60;64.50;;;;;;5050800;28;20183;-66
2023/11/09 00:05:07;;;;;;;11.33;2.60;;;25.70;64.20;;;;;;5046977;28;20216;-69
2023/11/09 00:07:35;;;;;;;13.93;2.37;;;25.80;63.40;;;;;;5051284;28;20722;-67
2023/11/09 00:10:05;;;;;;;12.20;2.17;;;25.90;63.10;;;;;;5052569;28;20259;-68
2023/11/09 00:12:33;;;;;;;3.60;1.80;;;25.90;62.50;;;;;;5054469;28;20172;-67
2023/11/09 00:15:00;;;;;;;11.37;2.03;;;25.90;62.10;;;;;;5053127;28;20272;-67
2023/11/09 00:17:28;;;;;;;4.97;1.60;;;25.90;61.10;;;;;;5056141;28;20263;-71
2023/11/09 00:19:55;;;;;;;7.60;2.03;;;26.00;60.80;;;;;;5054635;28;20241;-67
2023/11/09 00:22:22;;;;;;;7.83;2.20;;;26.00;60.50;;;;;;5051989;28;20176;-68
2023/11/09 00:24:49;;;;;;;5.87;2.20;;;25.90;61.40;;;;;;5054022;28;20195;-70
2023/11/09 00:27:23;;;;;;;8.97;2.20;;;26.30;61.60;;;;;;5053158;28;20200;-68
2023/11/09 00:29:50;;;;;;;6.70;2.27;;;26.40;59.90;;;;;;5049763;28;20707;-67
2023/11/09 00:32:18;;;;;;;6.10;1.70;;;26.50;59.90;;;;;;5053322;28;20180;-67
2023/11/09 00:34:46;;;;;;;11.47;2.27;;;26.70;59.80;;;;;;5053544;28;21141;-67
2023/11/09 00:37:13;;;;;;;7.20;1.90;;;26.70;59.80;;;;;;5054055;28;20682;-66
2023/11/09 00:39:40;;;;;;;8.80;2.67;;;26.90;60.00;;;;;;5053273;28;20650;-67
2023/11/09 00:42:08;;;;;;;6.83;2.07;;;26.90;58.30;;;;;;5053704;28;20184;-68
2023/11/09 00:44:36;;;;;;;7.00;1.60;;;26.90;58.10;;;;;;5047553;28;20238;-67
2023/11/09 00:47:03;;;;;;;3.93;1.77;;;27.30;57.80;;;;;;5049239;28;20187;-67
2023/11/09 00:49:31;;;;;;;8.60;1.93;;;27.40;57.00;;;;;;5055209;28;20176;-66
2023/11/09 00:52:00;;;;;;;6.87;1.67;;;26.90;58.30;;;;;;5051892;28;20226;-67
2023/11/09 00:54:28;;;;;;;8.77;2.23;;;26.40;59.20;;;;;;5052720;28;20276;-67
2023/11/09 00:56:56;;;;;;;7.60;1.80;;;26.30;59.80;;;;;;5053556;28;20558;-66
2023/11/09 00:59:24;;;;;;;8.23;1.90;;;26.10;59.90;;;;;;5048541;28;20184;-66
2023/11/09 01:01:53;;;;;;;6.00;2.20;;;25.90;60.50;;;;;;5053244;28;20309;-65
2023/11/09 01:04:25;;;;;;;4.67;1.57;;;25.80;60.70;;;;;;5077902;28;20210;-65
2023/11/09 01:06:53;;;;;;;5.53;1.57;;;25.80;60.40;;;;;;5053156;28;20211;-66
2023/11/09 01:09:23;;;;;;;8.37;1.73;;;25.60;60.70;;;;;;5054602;28;20184;-66
2023/11/09 01:11:52;;;;;;;6.37;1.50;;;25.40;61.00;;;;;;5050361;28;20184;-66
2023/11/09 01:14:21;;;;;;;8.47;1.80;;;25.00;61.50;;;;;;5051798;28;20631;-66
2023/11/09 01:16:49;;;;;;;6.80;2.23;;;25.00;61.60;;;;;;5038227;28;20192;-67
2023/11/09 01:19:21;;;;;;;8.37;1.63;;;24.90;61.70;;;;;;5044175;28;20548;-66
2023/11/09 01:21:49;;;;;;;8.20;1.80;;;24.90;61.90;;;;;;5053314;28;20188;-68
2023/11/09 01:24:18;;;;;;;8.93;2.17;;;24.90;61.70;;;;;;5047481;28;20199;-67
2023/11/09 01:26:45;;;;;;;11.20;2.40;;;24.80;61.90;;;;;;5040978;28;20183;-68
2023/11/09 01:29:14;;;;;;;10.97;1.90;;;24.80;62.60;;;;;;5053854;28;20237;-68
2023/11/09 01:31:42;;;;;;;8.23;1.93;;;24.80;62.70;;;;;;5049592;28;20207;-67
2023/11/09 01:34:10;;;;;;;6.93;2.13;;;24.80;63.00;;;;;;5051522;28;20805;-67
2023/11/09 01:36:37;;;;;;;10.43;2.20;;;24.70;63.30;;;;;;5051520;28;20176;-67
2023/11/09 01:39:05;;;;;;;5.07;1.87;;;24.70;62.80;;;;;;5053626;28;20231;-68
2023/11/09 01:41:34;;;;;;;10.73;2.17;;;24.80;63.30;;;;;;5050486;28;20180;-68
2023/11/09 01:44:04;;;;;;;5.00;1.43;;;24.70;62.60;;;;;;5053858;28;20540;-68
2023/11/09 01:46:33;;;;;;;8.07;2.40;;;24.70;62.90;;;;;;5050500;28;20196;-67
2023/11/09 01:49:01;;;;;;;6.97;2.10;;;25.20;63.20;;;;;;5053257;28;20600;-66
2023/11/09 01:51:33;;;;;;;8.77;2.00;;;25.70;62.00;;;;;;5053384;28;20183;-65
2023/11/09 01:54:01;;;;;;;8.23;2.10;;;26.20;60.20;;;;;;5047586;28;20192;-67
2023/11/09 01:56:30;;;;;;;5.63;2.00;;;26.20;60.40;;;;;;5050139;28;20195;-67
2023/11/09 01:59:06;;;;;;;6.57;2.30;;;26.40;60.10;;;;;;5052477;28;20719;-71
2023/11/09 02:01:34;;;;;;;7.07;2.07;;;26.50;58.70;;;;;;5051368;28;20212;-68
2023/11/09 02:04:03;;;;;;;8.43;2.53;;;26.30;59.70;;;;;;5048096;28;20195;-68
2023/11/09 02:06:34;;;;;;;6.70;2.40;;;26.40;58.90;;;;;;5043721;28;20194;-67
2023/11/09 02:09:06;;;;;;;6.87;2.13;;;26.40;58.90;;;;;;5050426;28;20187;-67
2023/11/09 02:11:40;;;;;;;5.63;2.13;;;26.90;57.80;;;;;;5050866;28;20223;-68
2023/11/09 02:14:09;;;;;;;5.07;2.07;;;26.80;58.60;;;;;;5051845;28;20279;-68
2023/11/09 02:16:39;;;;;;;5.97;2.20;;;27.00;57.20;;;;;;5051318;28;20516;-68
2023/11/09 02:19:08;;;;;;;8.87;2.33;;;26.90;57.30;;;;;;5053225;28;20222;-67
2023/11/09 02:21:37;;;;;;;5.60;1.73;;;26.80;57.90;;;;;;5045318;28;20211;-67
2023/11/09 02:24:12;;;;;;;11.67;2.73;;;26.80;58.40;;;;;;5053863;28;20183;-67
2023/11/09 02:26:40;;;;;;;7.37;2.00;;;26.90;58.10;;;;;;5051472;28;20680;-70
2023/11/09 02:29:08;;;;;;;10.83;2.40;;;27.10;57.50;;;;;;5048351;28;20548;-67
2023/11/09 02:31:35;;;;;;;10.97;2.57;;;27.50;56.50;;;;;;5050549;28;20267;-65
2023/11/09 02:34:04;;;;;;;6.87;2.10;;;27.70;56.50;;;;;;5054069;28;20188;-67
2023/11/09 02:36:32;;;;;;;8.80;2.27;;;27.20;57.20;;;;;;5051618;28;20206;-67
2023/11/09 02:38:59;;;;;;;8.97;2.13;;;27.20;57.20;;;;;;5050963;28;20311;-67
2023/11/09 02:41:28;;;;;;;6.60;2.23;;;27.50;56.80;;;;;;5050061;28;20193;-69
2023/11/09 02:43:56;;;;;;;11.80;2.50;;;27.60;56.40;;;;;;5051029;28;20245;-68
2023/11/09 02:46:23;;;;;;;8.33;2.33;;;27.60;57.00;;;;;;5050301;28;20237;-68
2023/11/09 02:48:52;;;;;;;8.20;2.40;;;27.60;57.20;;;;;;5051789;28;20202;-68
2023/11/09 02:51:20;;;;;;;6.47;2.33;;;27.40;57.80;;;;;;5050983;28;20560;-69
2023/11/09 02:53:48;;;;;;;8.70;2.20;;;27.50;57.90;;;;;;5048810;28;20207;-67
2023/11/09 02:56:15;;;;;;;8.60;2.10;;;27.20;58.60;;;;;;5054419;28;20318;-68
2023/11/09 02:58:48;;;;;;;11.00;2.60;;;26.70;59.70;;;;;;5058252;28;20176;-69
2023/11/09 03:01:18;;;;;;;7.63;1.90;;;26.40;61.00;;;;;;5051334;28;20188;-69
2023/11/09 03:03:47;;;;;;;9.93;2.50;;;26.30;61.40;;;;;;5050489;28;20248;-69
2023/11/09 03:06:14;;;;;;;7.53;2.10;;;25.90;62.50;;;;;;5050401;28;20730;-68
2023/11/09 03:08:42;;;;;;;5.90;1.80;;;25.90;62.90;;;;;;5051628;28;20206;-67
2023/11/09 03:11:09;;;;;;;8.90;2.17;;;25.70;63.70;;;;;;5048280;28;20180;-66
2023/11/09 03:13:39;;;;;;;8.47;2.23;;;25.70;63.10;;;;;;5052492;28;20267;-68
2023/11/09 03:16:09;;;;;;;8.23;2.27;;;25.80;62.60;;;;;;5045878;28;20234;-69
2023/11/09 03:18:37;;;;;;;14.53;2.40;;;25.90;62.50;;;;;;5051315;28;20230;-68
2023/11/09 03:21:09;;;;;;;8.50;1.73;;;26.30;61.20;;;;;;5046002;28;20638;-68
2023/11/09 03:23:38;;;;;;;6.73;1.80;;;26.50;60.50;;;;;;5048834;28;20192;-68
2023/11/09 03:26:06;;;;;;;8.57;1.67;;;26.40;60.30;;;;;;5049435;28;20249;-67
2023/11/09 03:28:39;;;;;;;13.30;2.10;;;26.30;60.50;;;;;;5051913;28;20638;-67
2023/11/09 03:31:06;;;;;;;7.47;2.00;;;25.90;61.00;;;;;;5049716;28;20215;-67
2023/11/09 03:33:35;;;;;;;6.40;2.17;;;25.90;61.10;;;;;;5052531;28;20257;-67
2023/11/09 03:36:03;;;;;;;10.87;1.90;;;25.70;62.00;;;;;;5051900;28;20219;-66
2023/11/09 03:38:31;;;;;;;9.07;2.57;;;25.30;63.30;;;;;;5051044;28;20215;-65
2023/11/09 03:40:59;;;;;;;5.20;1.70;;;25.00;63.70;;;;;;5046659;28;20206;-65
2023/11/09 03:43:27;;;;;;;7.47;2.10;;;24.70;63.90;;;;;;5047883;28;20258;-67
2023/11/09 03:45:54;;;;;;;9.57;2.03;;;24.60;64.90;;;;;;5049830;28;20196;-67
2023/11/09 03:48:22;;;;;;;9.80;2.30;;;24.30;65.90;;;;;;5046345;28;20551;-68
2023/11/09 03:50:50;;;;;;;12.20;2.27;;;24.20;66.60;;;;;;5052058;28;20202;-66
2023/11/09 03:53:18;;;;;;;10.50;1.97;;;24.10;66.60;;;;;;5049922;28;20180;-67
2023/11/09 03:55:45;;;;;;;6.47;1.90;;;23.90;67.60;;;;;;5054443;28;20285;-69
2023/11/09 03:58:13;;;;;;;6.90;2.03;;;23.70;68.20;;;;;;5052641;28;20185;-67
2023/11/09 04:00:41;;;;;;;4.63;1.73;;;23.70;68.40;;;;;;5050291;28;20254;-66
2023/11/09 04:03:09;;;;;;;12.63;2.20;;;23.60;68.50;;;;;;5047132;28;20266;-66
2023/11/09 04:05:36;;;;;;;9.33;2.40;;;23.60;68.00;;;;;;5049199;28;20208;-66
2023/11/09 04:08:04;;;;;;;7.10;2.03;;;23.50;67.60;;;;;;5055425;28;20249;-66
2023/11/09 04:10:31;;;;;;;10.90;2.63;;;23.40;68.50;;;;;;5055799;28;20664;-66
2023/11/09 04:12:59;;;;;;;11.77;2.40;;;23.30;68.70;;;;;;5052023;28;20638;-65
2023/11/09 04:15:26;;;;;;;9.27;2.10;;;23.20;69.50;;;;;;5053010;28;20211;-67
2023/11/09 04:17:53;;;;;;;9.20;2.33;;;23.10;69.70;;;;;;5050811;28;20191;-66
2023/11/09 04:20:21;;;;;;;9.33;2.10;;;23.10;70.40;;;;;;5054978;28;20717;-66
2023/11/09 04:22:48;;;;;;;15.13;2.97;;;23.00;70.60;;;;;;5055002;28;20184;-67
2023/11/09 04:25:18;;;;;;;10.97;2.40;;;22.90;70.70;;;;;;5054590;28;20176;-66
2023/11/09 04:27:45;;;;;;;14.13;2.70;;;22.80;71.60;;;;;;5050058;28;20192;-66
2023/11/09 04:30:16;;;;;;;12.07;2.70;;;22.70;72.50;;;;;;5046444;28;20180;-67
2023/11/09 04:32:44;;;;;;;10.60;2.60;;;22.70;72.70;;;;;;5054595;28;20285;-66
2023/11/09 04:35:11;;;;;;;14.50;2.73;;;22.70;73.00;;;;;;5047180;28;20281;-66
2023/11/09 04:37:38;;;;;;;10.03;2.33;;;22.60;73.40;;;;;;5051658;28;20231;-67
2023/11/09 04:40:25;;;;;;;20.93;3.03;;;22.60;73.70;;;;;;5054362;28;20199;-66
2023/11/09 04:42:53;;;;;;;14.27;2.27;;;22.60;74.30;;;;;;5051048;28;20180;-65
2023/11/09 04:45:21;;;;;;;9.60;2.17;;;22.40;73.60;;;;;;5054674;28;20195;-68
2023/11/09 04:47:55;;;;;;;11.13;2.23;;;22.30;74.20;;;;;;5053931;28;20184;-67
2023/11/09 04:50:30;;;;;;;8.80;2.43;;;22.30;74.70;;;;;;5051522;28;20183;-67
2023/11/09 04:53:07;;;;;;;7.43;2.17;;;22.30;75.70;;;;;;5053479;28;20183;-68
2023/11/09 04:55:53;;;;;;;5.70;1.60;;;21.70;75.60;;;;;;5047844;28;20211;-67
2023/11/09 05:06:55;;;;;;;3.73;1.60;;;19.60;83.90;;;;;;5054843;28;20249;-66
2023/11/09 05:09:23;;;;;;;5.43;1.70;;;19.30;84.50;;;;;;5045966;28;20271;-67
2023/11/09 05:11:51;;;;;;;4.37;1.77;;;19.50;85.90;;;;;;5054773;28;20234;-71
2023/11/09 05:14:19;;;;;;;4.73;2.00;;;19.40;86.30;;;;;;5053825;28;20546;-67
2023/11/09 05:16:47;;;;;;;4.93;2.07;;;19.50;86.80;;;;;;5053754;28;20673;-67
2023/11/09 05:19:14;;;;;;;6.53;2.63;;;19.60;86.90;;;;;;5054751;28;20635;-68
2023/11/09 05:21:42;;;;;;;9.30;3.30;;;19.60;86.90;;;;;;5054789;28;20594;-67
2023/11/09 05:24:09;;;;;;;9.30;2.80;;;19.60;87.10;;;;;;5054682;28;20193;-67
2023/11/09 05:26:37;;;;;;;4.53;2.30;;;19.70;87.70;;;;;;5054846;28;20657;-67
2023/11/09 05:29:05;;;;;;;8.43;2.57;;;19.50;87.20;;;;;;5053507;28;20195;-67
2023/11/09 05:31:37;;;;;;;10.43;2.87;;;19.50;88.00;;;;;;5053819;28;20175;-67
2023/11/09 05:34:04;;;;;;;9.67;3.93;;;19.60;88.50;;;;;;5053906;28;20706;-67
2023/11/09 05:36:34;;;;;;;11.97;3.30;;;19.60;88.50;;;;;;5053191;28;20188;-68
2023/11/09 05:39:04;;;;;;;11.40;3.60;;;19.60;88.90;;;;;;5051237;28;20216;-68
2023/11/09 05:41:32;;;;;;;12.20;3.13;;;19.50;88.50;;;;;;5054475;28;20179;-68
2023/11/09 05:44:00;;;;;;;13.33;3.50;;;19.50;89.10;;;;;;5053770;28;20245;-68
2023/11/09 05:46:27;;;;;;;11.37;3.27;;;19.50;89.30;;;;;;5053601;28;20196;-67
2023/11/09 05:48:55;;;;;;;11.97;3.83;;;19.50;89.20;;;;;;5050919;28;20187;-68
2023/11/09 05:51:23;;;;;;;13.53;3.80;;;19.30;89.20;;;;;;5053414;28;20187;-67
2023/11/09 05:53:56;;;;;;;14.67;3.80;;;19.30;89.60;;;;;;5053761;28;20185;-67
2023/11/09 05:56:25;;;;;;;13.77;3.90;;;19.40;89.80;;;;;;5053680;28;20306;-67
2023/11/09 05:58:55;;;;;;;16.93;4.70;;;19.50;90.00;;;;;;5054127;28;20314;-68
2023/11/09 06:01:24;;;;;;;15.23;5.20;;;19.60;90.20;;;;;;5054305;28;20263;-68
2023/11/09 06:03:52;;;;;;;18.27;5.33;;;19.60;90.30;;;;;;5053611;28;20546;-67
2023/11/09 06:06:19;;;;;;;14.37;4.77;;;19.70;90.60;;;;;;5054187;28;20253;-68
2023/11/09 06:08:46;;;;;;;17.53;6.27;;;19.60;90.60;;;;;;5053109;28;20191;-68
2023/11/09 06:11:13;;;;;;;17.33;5.80;;;19.60;90.70;;;;;;5053901;28;20180;-68
2023/11/09 06:13:41;;;;;;;15.73;5.40;;;19.50;90.70;;;;;;5053311;28;20183;-69
2023/11/09 06:16:08;;;;;;;16.53;5.57;;;19.40;90.80;;;;;;5053912;28;20212;-68
2023/11/09 06:18:36;;;;;;;12.97;5.60;;;19.30;90.90;;;;;;5053669;28;20194;-68
2023/11/09 06:21:04;;;;;;;14.23;5.37;;;19.30;91.20;;;;;;5053856;28;20184;-68
2023/11/09 06:23:31;;;;;;;15.47;5.73;;;19.30;91.50;;;;;;5053664;28;20176;-68
2023/11/09 06:25:59;;;;;;;17.33;5.83;;;19.30;91.70;;;;;;5053414;28;20220;-69
2023/11/09 06:28:26;;;;;;;11.13;6.20;;;19.30;91.90;;;;;;5048841;28;20179;-70
2023/11/09 06:30:54;;;;;;;9.40;5.47;;;19.20;91.70;;;;;;5046245;28;20179;-69
2023/11/09 06:33:22;;;;;;;7.97;4.43;;;19.10;91.80;;;;;;5051928;28;20188;-68
2023/11/09 06:35:50;;;;;;;5.70;4.43;;;19.00;91.80;;;;;;5051571;28;20215;-70
2023/11/09 06:38:20;;;;;;;7.97;4.73;;;18.90;91.80;;;;;;5052486;28;20269;-69
2023/11/09 06:40:48;;;;;;;8.53;5.10;;;19.00;92.00;;;;;;5060146;28;20518;-68
2023/11/09 06:43:16;;;;;;;7.63;4.73;;;19.00;92.00;;;;;;5052059;28;20179;-69
2023/11/09 06:45:43;;;;;;;5.83;4.87;;;18.90;91.40;;;;;;5052417;28;20180;-68
2023/11/09 06:48:10;;;;;;;8.17;5.13;;;18.80;91.40;;;;;;5050792;28;20180;-67
2023/11/09 06:50:38;;;;;;;12.33;5.20;;;18.80;91.60;;;;;;5050401;28;20179;-68
2023/11/09 06:53:06;;;;;;;8.97;5.10;;;18.90;91.50;;;;;;5047535;28;20207;-69
2023/11/09 06:55:34;;;;;;;6.27;4.57;;;19.00;91.90;;;;;;5051628;28;20223;-69
2023/11/09 06:58:01;;;;;;;8.23;5.30;;;19.00;91.30;;;;;;5042539;28;20180;-68
2023/11/09 07:00:29;;;;;;;7.67;5.63;;;19.00;91.50;;;;;;5049692;28;20184;-69
2023/11/09 07:02:58;;;;;;;11.07;5.10;;;19.10;91.40;;;;;;5058279;28;20184;-68
2023/11/09 07:05:25;;;;;;;9.90;4.67;;;19.30;91.70;;;;;;5039500;28;20557;-68
2023/11/09 07:07:56;;;;;;;9.90;4.90;;;19.30;91.60;;;;;;5049423;28;20172;-69
2023/11/09 07:10:24;;;;;;;6.77;4.80;;;19.30;91.30;;;;;;5046196;28;20187;-69
2023/11/09 07:12:51;;;;;;;7.10;5.00;;;19.40;91.50;;;;;;5051734;28;20176;-69
2023/11/09 07:15:18;;;;;;;8.13;5.60;;;19.50;91.20;;;;;;5064277;28;20219;-69
2023/11/09 07:17:46;;;;;;;6.93;5.73;;;19.50;91.10;;;;;;5063244;28;20271;-69
2023/11/09 07:20:13;;;;;;;13.47;7.20;;;19.60;91.10;;;;;;5058811;28;20180;-69
2023/11/09 07:22:40;;;;;;;9.43;6.40;;;19.60;91.10;;;;;;5062907;28;20535;-69
2023/11/09 07:25:08;;;;;;;15.67;6.60;;;19.50;90.50;;;;;;5057830;28;20175;-69
2023/11/09 07:27:36;;;;;;;10.97;5.33;;;19.40;90.70;;;;;;5051480;28;20279;-69
2023/11/09 07:30:04;;;;;;;12.37;5.83;;;19.50;90.60;;;;;;5055451;28;20176;-71
2023/11/09 07:32:31;;;;;;;13.87;5.20;;;19.40;90.60;;;;;;5061611;28;20175;-69
2023/11/09 07:34:58;;;;;;;11.60;4.93;;;19.40;90.40;;;;;;5054673;28;20236;-69
2023/11/09 07:37:27;;;;;;;11.80;5.13;;;19.40;90.40;;;;;;5050041;28;20618;-70
2023/11/09 07:39:57;;;;;;;8.90;5.30;;;19.30;90.30;;;;;;5050447;28;20187;-71
2023/11/09 07:42:25;;;;;;;17.03;6.80;;;19.30;90.20;;;;;;5064569;28;20290;-69
2023/11/09 07:44:52;;;;;;;21.83;7.20;;;19.40;90.60;;;;;;5061018;28;20233;-68
2023/11/09 07:47:19;;;;;;;19.10;7.30;;;19.30;90.50;;;;;;5052751;28;20176;-68
2023/11/09 07:49:46;;;;;;;19.70;7.67;;;19.20;90.50;;;;;;5053093;28;20183;-68
2023/11/09 07:52:14;;;;;;;15.83;7.00;;;19.10;91.00;;;;;;5065566;28;20183;-68
2023/11/09 07:54:44;;;;;;;16.93;7.73;;;19.00;90.80;;;;;;5057894;28;20580;-67
2023/11/09 07:57:11;;;;;;;21.80;7.70;;;19.10;91.30;;;;;;5064888;28;20274;-67
2023/11/09 07:59:39;;;;;;;15.53;7.90;;;19.00;90.90;;;;;;5062213;28;20248;-68
2023/11/09 08:02:07;;;;;;;15.23;7.57;;;19.00;91.00;;;;;;5059406;28;20194;-68
2023/11/09 08:04:34;;;;;;;18.13;7.43;;;18.90;91.00;;;;;;5060039;28;20240;-68
2023/11/09 08:07:02;;;;;;;19.80;8.20;;;18.90;91.20;;;;;;5057816;28;20701;-70
2023/11/09 08:09:30;;;;;;;12.10;6.90;;;18.90;91.40;;;;;;5072449;28;20301;-67
2023/11/09 08:11:57;;;;;;;16.77;8.00;;;19.00;91.20;;;;;;5054491;28;20191;-68
2023/11/09 08:14:24;;;;;;;13.63;9.00;;;18.90;91.10;;;;;;5069411;28;20174;-68
2023/11/09 08:16:51;;;;;;;14.17;7.50;;;19.00;91.40;;;;;;5055810;28;20686;-68
2023/11/09 08:19:19;;;;;;;8.67;7.77;;;18.90;91.20;;;;;;5060497;28;20249;-68
2023/11/09 08:21:47;;;;;;;10.77;8.50;;;18.80;91.10;;;;;;5062346;28;20183;-69
2023/11/09 08:24:14;;;;;;;12.57;8.47;;;18.80;91.30;;;;;;5062438;28;20637;-68
2023/11/09 08:26:43;;;;;;;11.03;8.63;;;18.80;91.60;;;;;;5066506;28;20175;-68
2023/11/09 08:29:11;;;;;;;11.63;9.50;;;18.80;91.70;;;;;;5039845;28;20184;-70
2023/11/09 08:31:38;;;;;;;11.27;8.50;;;18.90;91.80;;;;;;5048144;28;20183;-72
2023/11/09 08:34:08;;;;;;;9.13;8.27;;;18.90;91.90;;;;;;5047333;28;20185;-72
2023/11/09 08:36:35;;;;;;;9.53;8.37;;;18.80;91.60;;;;;;5053579;28;20227;-72
2023/11/09 08:39:03;;;;;;;9.07;8.23;;;18.80;91.60;;;;;;5053092;28;20231;-72
2023/11/09 08:41:31;;;;;;;9.90;8.83;;;18.80;91.90;;;;;;5052989;28;20540;-73
2023/11/09 08:43:58;;;;;;;15.63;9.93;;;18.80;91.90;;;;;;5058833;28;20198;-72
2023/11/09 08:46:26;;;;;;;9.80;8.90;;;18.80;92.00;;;;;;5054840;28;20188;-73
2023/11/09 08:48:53;;;;;;;10.30;9.40;;;18.80;91.80;;;;;;5054756;28;20188;-73
2023/11/09 08:51:20;;;;;;;11.87;10.87;;;18.70;91.80;;;;;;5055061;28;20176;-72
2023/11/09 08:53:48;;;;;;;10.83;9.83;;;18.70;92.00;;;;;;5054918;28;20195;-71
2023/11/09 08:56:16;;;;;;;13.87;11.20;;;18.80;92.40;;;;;;5054932;28;20254;-72
2023/11/09 08:58:43;;;;;;;12.93;11.73;;;18.80;92.30;;;;;;5055297;28;20176;-70
2023/11/09 09:01:20;;;;;;;14.20;12.70;;;18.70;92.10;;;;;;5048896;28;20188;-72
2023/11/09 09:03:50;;;;;;;13.93;12.20;;;18.70;92.30;;;;;;5050266;28;20186;-73
2023/11/09 09:06:18;;;;;;;13.43;12.23;;;18.70;92.50;;;;;;5053115;28;20187;-72
2023/11/09 09:08:45;;;;;;;13.13;11.93;;;18.70;92.60;;;;;;5051797;28;20726;-71
2023/11/09 09:11:14;;;;;;;16.70;13.77;;;18.70;92.50;;;;;;5050862;28;20668;-71
2023/11/09 09:13:42;;;;;;;17.33;14.37;;;18.60;92.40;;;;;;5049344;28;20184;-71
2023/11/09 09:16:09;;;;;;;15.57;13.40;;;18.60;92.60;;;;;;5051999;28;20223;-72
2023/11/09 09:18:37;;;;;;;16.03;13.13;;;18.60;92.70;;;;;;5049286;28;20176;-71
2023/11/09 09:21:08;;;;;;;15.60;14.30;;;18.60;92.80;;;;;;5049229;28;20219;-72
2023/11/09 09:23:37;;;;;;;20.63;14.67;;;18.60;92.70;;;;;;5053233;28;20214;-72
2023/11/09 09:26:07;;;;;;;17.93;13.33;;;18.60;92.80;;;;;;5052122;28;20659;-71
2023/11/09 09:28:36;;;;;;;15.37;12.50;;;18.50;92.80;;;;;;5051232;28;20226;-71
2023/11/09 09:31:03;;;;;;;14.97;12.93;;;18.50;92.80;;;;;;5046142;28;20210;-71
2023/11/09 09:33:32;;;;;;;13.07;11.87;;;18.50;92.70;;;;;;5045622;28;20267;-73
2023/11/09 09:35:59;;;;;;;11.87;10.70;;;18.40;92.60;;;;;;5053997;28;20255;-73
2023/11/09 09:38:26;;;;;;;14.03;12.30;;;18.50;92.80;;;;;;5043046;28;20224;-72
2023/11/09 09:40:54;;;;;;;14.80;12.33;;;18.60;92.80;;;;;;5049569;28;20199;-72
2023/11/09 09:43:22;;;;;;;13.37;12.13;;;18.50;92.80;;;;;;5052319;28;20179;-72
2023/11/09 09:45:57;;;;;;;13.57;12.37;;;18.50;92.80;;;;;;5053454;28;20190;-72
2023/11/09 09:48:29;;;;;;;14.10;12.10;;;18.50;92.80;;;;;;5052003;28;20172;-72
2023/11/09 09:50:58;;;;;;;13.50;12.17;;;18.60;92.80;;;;;;5048385;28;20192;-73
2023/11/09 09:53:27;;;;;;;13.70;12.40;;;18.60;92.80;;;;;;5052571;28;20176;-72
2023/11/09 09:55:56;;;;;;;13.43;11.97;;;18.60;92.90;;;;;;5053077;28;20207;-72
2023/11/09 09:58:24;;;;;;;12.87;11.90;;;18.60;92.90;;;;;;5053017;28;20180;-70
2023/11/09 10:00:55;;;;;;;14.93;12.80;;;18.60;92.90;;;;;;5053625;28;20180;-72
2023/11/09 10:03:23;;;;;;;13.37;12.13;;;18.60;92.70;;;;;;5049677;28;20182;-70
2023/11/09 10:05:50;;;;;;;11.53;10.50;;;18.50;92.50;;;;;;5049372;28;20655;-73
2023/11/09 10:08:19;;;;;;;12.37;11.17;;;18.50;92.60;;;;;;5048277;28;20311;-72
2023/11/09 10:10:52;;;;;;;10.90;10.07;;;18.40;92.50;;;;;;5050883;28;20530;-71
2023/11/09 10:13:24;;;;;;;11.73;10.63;;;18.50;92.50;;;;;;5051884;28;20634;-72
2023/11/09 10:15:59;;;;;;;13.70;12.50;;;18.50;92.50;;;;;;5048854;28;20666;-73
2023/11/09 10:18:28;;;;;;;13.40;11.70;;;18.50;92.50;;;;;;5044504;28;20186;-73
2023/11/09 10:20:57;;;;;;;12.70;11.57;;;18.50;92.60;;;;;;5045547;28;20184;-72
2023/11/09 10:23:28;;;;;;;13.13;11.87;;;18.50;92.50;;;;;;5047511;28;20180;-72
2023/11/09 10:26:11;;;;;;;14.50;11.30;;;18.50;92.60;;;;;;5050922;28;20282;-71
2023/11/09 10:28:40;;;;;;;12.30;11.00;;;18.50;92.70;;;;;;5049714;28;20246;-73
2023/11/09 10:31:08;;;;;;;12.90;11.80;;;18.50;92.80;;;;;;5052885;28;20219;-72
2023/11/09 10:33:35;;;;;;;22.97;12.43;;;18.60;92.80;;;;;;5051751;28;20218;-72
2023/11/09 10:36:04;;;;;;;12.27;11.27;;;18.50;92.60;;;;;;5047958;28;20281;-71
2023/11/09 10:38:32;;;;;;;12.57;11.47;;;18.50;92.60;;;;;;5051948;28;20216;-72
2023/11/09 10:41:01;;;;;;;12.43;11.50;;;18.50;92.70;;;;;;5051133;28;20188;-72
2023/11/09 10:43:33;;;;;;;13.30;12.07;;;18.50;92.70;;;;;;5049864;28;20191;-72
2023/11/09 10:46:08;;;;;;;11.70;10.77;;;18.50;92.60;;;;;;5044555;28;20553;-72
2023/11/09 10:48:44;;;;;;;11.93;11.00;;;18.40;92.40;;;;;;5048829;28;20212;-72
2023/11/09 10:51:13;;;;;;;13.40;12.23;;;18.40;92.50;;;;;;5049889;28;20318;-73
2023/11/09 10:53:46;;;;;;;14.07;12.73;;;18.50;92.50;;;;;;5051774;28;20236;-72
2023/11/09 10:56:17;;;;;;;14.23;13.20;;;18.50;92.60;;;;;;5046364;28;20215;-75
2023/11/09 10:58:45;;;;;;;13.40;12.27;;;18.50;92.50;;;;;;5046159;28;20590;-72
2023/11/09 11:01:17;;;;;;;13.40;12.30;;;18.50;92.60;;;;;;5060308;28;20185;-72
2023/11/09 11:03:51;;;;;;;12.87;11.87;;;18.40;92.60;;;;;;5064353;28;20609;-72
2023/11/09 11:06:26;;;;;;;14.47;13.27;;;18.40;92.60;;;;;;5072384;28;20226;-72
2023/11/09 11:09:01;;;;;;;15.50;14.13;;;18.40;92.60;;;;;;5072919;28;20181;-72
2023/11/09 11:11:33;;;;;;;14.30;13.20;;;18.40;92.60;;;;;;5066355;28;20535;-72
2023/11/09 11:14:10;;;;;;;16.07;14.83;;;18.40;92.70;;;;;;5064954;28;20184;-72
2023/11/09 11:16:51;;;;;;;16.17;15.07;;;18.50;92.70;;;;;;5051997;28;20223;-72
2023/11/09 11:19:18;;;;;;;16.13;14.73;;;18.50;92.70;;;;;;5058134;28;20536;-72
2023/11/09 11:22:08;;;;;;;15.00;14.03;;;18.40;92.70;;;;;;5066979;28;20183;-72
2023/11/09 11:24:51;;;;;;;16.03;14.73;;;18.40;92.80;;;;;;5064102;28;20175;-72
2023/11/09 11:27:39;;;;;;;16.57;14.87;;;18.40;92.80;;;;;;5058869;28;20266;-71
2023/11/09 11:30:32;;;;;;;15.77;14.53;;;18.40;92.80;;;;;;5056473;28;20312;-71
2023/11/09 11:33:04;;;;;;;18.60;16.97;;;18.40;92.80;;;;;;5072723;28;20179;-71
2023/11/09 11:35:43;;;;;;;17.33;16.10;;;18.40;92.90;;;;;;5060450;28;20673;-72
2023/11/09 11:38:28;;;;;;;18.80;17.33;;;18.40;93.00;;;;;;5053991;28;20258;-71
2023/11/09 11:41:17;;;;;;;19.53;18.00;;;18.40;93.00;;;;;;5059586;28;20180;-71
2023/11/09 11:43:52;;;;;;;18.30;16.67;;;18.30;92.90;;;;;;5061454;28;20184;-71
2023/11/09 11:46:24;;;;;;;17.47;15.93;;;18.30;92.90;;;;;;5060191;28;20699;-71
2023/11/09 11:48:53;;;;;;;16.40;15.20;;;18.30;93.00;;;;;;5047069;28;20275;-72
2023/11/09 11:51:22;;;;;;;18.87;17.20;;;18.30;93.10;;;;;;5066204;28;20290;-72
2023/11/09 11:54:00;;;;;;;17.70;16.60;;;18.30;93.10;;;;;;5052884;28;20180;-72
2023/11/09 11:56:33;;;;;;;18.50;17.23;;;18.30;93.10;;;;;;5060987;28;20750;-72
2023/11/09 11:59:09;;;;;;;19.73;18.23;;;18.30;93.00;;;;;;5070391;28;20167;-71
2023/11/09 12:01:40;;;;;;;19.97;18.47;;;18.30;93.00;;;;;;5060244;28;20225;-70
2023/11/09 12:04:08;;;;;;;20.70;19.17;;;18.30;93.10;;;;;;5062271;28;20234;-71
2023/11/09 12:06:37;;;;;;;22.27;20.43;;;18.20;92.90;;;;;;5058722;28;20751;-71
2023/11/09 12:09:10;;;;;;;22.57;21.00;;;18.30;93.00;;;;;;5052506;28;20176;-71
2023/11/09 12:11:53;;;;;;;24.93;23.13;;;18.20;93.00;;;;;;5049844;28;20582;-72
2023/11/09 12:14:23;;;;;;;24.77;23.00;;;18.20;93.00;;;;;;5051066;28;20184;-71
2023/11/09 12:16:51;;;;;;;24.50;23.07;;;18.20;93.10;;;;;;5060078;28;20592;-71
2023/11/09 12:19:18;;;;;;;21.90;20.60;;;18.20;93.10;;;;;;5065628;28;20204;-71
2023/11/09 12:21:49;;;;;;;23.70;22.07;;;18.20;93.20;;;;;;5060680;28;20179;-71
2023/11/09 12:24:22;;;;;;;25.30;23.50;;;18.20;93.10;;;;;;5063747;28;20183;-71
2023/11/09 12:27:02;;;;;;;24.60;22.80;;;18.20;93.10;;;;;;5060301;28;20674;-71
2023/11/09 12:29:32;;;;;;;25.87;23.87;;;18.20;93.10;;;;;;5065630;28;20195;-71
2023/11/09 12:32:00;;;;;;;24.40;22.67;;;18.10;93.10;;;;;;5076264;28;20179;-71
2023/11/09 12:34:29;;;;;;;25.63;23.93;;;18.20;93.20;;;;;;5058532;28;20583;-71
2023/11/09 12:36:57;;;;;;;25.83;23.87;;;18.10;93.10;;;;;;5075619;28;20211;-70
2023/11/09 12:39:30;;;;;;;23.50;22.03;;;18.10;93.10;;;;;;5061405;28;21503;-71
2023/11/09 12:41:59;;;;;;;23.43;21.93;;;18.10;93.10;;;;;;5068436;28;20180;-71
2023/11/09 12:44:29;;;;;;;24.97;23.17;;;18.00;93.00;;;;;;5058425;28;20183;-71
2023/11/09 12:47:07;;;;;;;24.43;22.83;;;17.90;93.00;;;;;;5068155;28;20183;-71
2023/11/09 12:49:35;;;;;;;25.37;23.87;;;17.90;93.00;;;;;;5055517;28;20215;-72
2023/11/09 12:52:06;;;;;;;23.77;22.10;;;17.80;93.10;;;;;;5055835;28;20188;-71
2023/11/09 12:54:34;;;;;;;24.00;22.30;;;17.80;93.10;;;;;;5054657;28;20183;-71
2023/11/09 12:57:07;;;;;;;21.70;20.23;;;17.80;93.10;;;;;;5045449;28;20220;-71